sensor_id;sensor_type;location;lat;lon;timestamp;pressure;altitude;pressure_sealevel;temperature;humidity
9474;BME280;8865;47.636;7.692;2023-05-09T00:01:40;98653.91;;;13.95;100.00
9474;BME280;8865;47.636;7.692;2023-05-09T00:04:08;98651.28;;;13.95;100.00
9474;BME280;8865;47.636;7.692;2023-05-09T00:06:34;98654.81;;;14.03;100.00
9474;BME280;8865;47.636;7.692;2023-05-09T00:09:00;98655.97;;;14.01;100.00
9474;BME280;8865;47.636;7.692;2023-05-09T00:11:26;98649.03;;;14.00;100.00
9474;BME280;8865;47.636;7.692;2023-05-09T00:13:52;98640.13;;;14.10;100.00
9474;BME280;8865;47.636;7.692;2023-05-09T00:16:18;98638.41;;;14.19;100.00
9474;BME280;8865;47.636;7.692;2023-05-09T00:18:45;98634.06;;;14.28;100.00
9474;BME280;8865;47.636;7.692;2023-05-09T00:21:11;98635.28;;;14.34;100.00
9474;BME280;8865;47.636;7.692;2023-05-09T00:23:37;98629.19;;;14.33;100.00
9474;BME280;8865;47.636;7.692;2023-05-09T00:26:03;98629.72;;;14.37;100.00
9474;BME280;8865;47.636;7.692;2023-05-09T00:28:30;98625.53;;;14.44;100.00
9474;BME280;8865;47.636;7.692;2023-05-09T00:30:56;98622.75;;;14.45;100.00
9474;BME280;8865;47.636;7.692;2023-05-09T00:33:22;98627.72;;;14.49;100.00
9474;BME280;8865;47.636;7.692;2023-05-09T00:35:52;98621.84;;;14.55;100.00
9474;BME280;8865;47.636;7.692;2023-05-09T00:38:18;98625.00;;;14.58;100.00
9474;BME280;8865;47.636;7.692;2023-05-09T00:40:44;98624.50;;;14.55;100.00
9474;BME280;8865;47.636;7.692;2023-05-09T00:43:10;98628.34;;;14.60;100.00
9474;BME280;8865;47.636;7.692;2023-05-09T00:45:36;98625.72;;;14.60;100.00
9474;BME280;8865;47.636;7.692;2023-05-09T00:48:02;98611.00;;;14.58;100.00
9474;BME280;8865;47.636;7.692;2023-05-09T00:50:29;98603.09;;;14.58;100.00
9474;BME280;8865;47.636;7.692;2023-05-09T00:52:56;98604.28;;;14.45;100.00
9474;BME280;8865;47.636;7.692;2023-05-09T00:55:22;98590.41;;;14.25;100.00
9474;BME280;8865;47.636;7.692;2023-05-09T00:57:48;98582.88;;;14.31;100.00
9474;BME280;8865;47.636;7.692;2023-05-09T01:00:16;98574.59;;;14.25;100.00
9474;BME280;8865;47.636;7.692;2023-05-09T01:02:44;98581.28;;;14.20;100.00
9474;BME280;8865;47.636;7.692;2023-05-09T01:05:11;98581.28;;;14.20;100.00
9474;BME280;8865;47.636;7.692;2023-05-09T01:10:42;98577.56;;;13.85;100.00
9474;BME280;8865;47.636;7.692;2023-05-09T01:18:28;98574.31;;;14.01;100.00
9474;BME280;8865;47.636;7.692;2023-05-09T01:21:05;98574.69;;;14.06;100.00
9474;BME280;8865;47.636;7.692;2023-05-09T01:29:26;98559.84;;;13.87;100.00
9474;BME280;8865;47.636;7.692;2023-05-09T01:31:58;98564.69;;;13.82;100.00
9474;BME280;8865;47.636;7.692;2023-05-09T01:34:25;98555.63;;;13.66;100.00
9474;BME280;8865;47.636;7.692;2023-05-09T01:36:55;98566.06;;;13.48;100.00
9474;BME280;8865;47.636;7.692;2023-05-09T01:39:24;98568.28;;;13.43;100.00
9474;BME280;8865;47.636;7.692;2023-05-09T01:41:53;98560.88;;;13.66;100.00
9474;BME280;8865;47.636;7.692;2023-05-09T01:44:22;98558.91;;;13.78;100.00
9474;BME280;8865;47.636;7.692;2023-05-09T01:46:51;98565.03;;;13.69;100.00
9474;BME280;8865;47.636;7.692;2023-05-09T01:49:19;98556.56;;;13.75;100.00
9474;BME280;8865;47.636;7.692;2023-05-09T01:51:46;98561.84;;;13.65;100.00
9474;BME280;8865;47.636;7.692;2023-05-09T01:54:14;98559.63;;;13.70;100.00
9474;BME280;8865;47.636;7.692;2023-05-09T01:56:42;98552.97;;;13.76;100.00
9474;BME280;8865;47.636;7.692;2023-05-09T01:59:09;98542.31;;;13.68;100.00
9474;BME280;8865;47.636;7.692;2023-05-09T02:01:42;98542.56;;;13.74;100.00
9474;BME280;8865;47.636;7.692;2023-05-09T02:04:09;98534.25;;;13.79;100.00
9474;BME280;8865;47.636;7.692;2023-05-09T02:06:36;98538.22;;;13.83;100.00
9474;BME280;8865;47.636;7.692;2023-05-09T02:09:02;98533.31;;;13.70;100.00
9474;BME280;8865;47.636;7.692;2023-05-09T02:11:28;98531.63;;;13.69;100.00
9474;BME280;8865;47.636;7.692;2023-05-09T02:13:54;98530.22;;;13.75;100.00
9474;BME280;8865;47.636;7.692;2023-05-09T02:16:20;98530.66;;;13.70;100.00
9474;BME280;8865;47.636;7.692;2023-05-09T02:18:47;98535.66;;;13.64;100.00
9474;BME280;8865;47.636;7.692;2023-05-09T02:21:13;98534.31;;;13.60;100.00
9474;BME280;8865;47.636;7.692;2023-05-09T02:23:39;98535.63;;;13.73;100.00
9474;BME280;8865;47.636;7.692;2023-05-09T02:26:05;98541.84;;;13.82;100.00
9474;BME280;8865;47.636;7.692;2023-05-09T02:28:31;98536.81;;;13.89;100.00
9474;BME280;8865;47.636;7.692;2023-05-09T02:30:58;98536.38;;;13.93;100.00
9474;BME280;8865;47.636;7.692;2023-05-09T02:33:27;98539.22;;;14.00;100.00
9474;BME280;8865;47.636;7.692;2023-05-09T02:35:54;98546.53;;;14.06;100.00
9474;BME280;8865;47.636;7.692;2023-05-09T02:38:20;98537.22;;;14.12;100.00
9474;BME280;8865;47.636;7.692;2023-05-09T02:40:47;98535.97;;;14.16;100.00
9474;BME280;8865;47.636;7.692;2023-05-09T02:43:14;98533.88;;;14.20;100.00
9474;BME280;8865;47.636;7.692;2023-05-09T02:45:40;98533.41;;;14.24;100.00
9474;BME280;8865;47.636;7.692;2023-05-09T02:48:07;98534.38;;;14.23;100.00
9474;BME280;8865;47.636;7.692;2023-05-09T02:50:33;98529.97;;;14.24;100.00
9474;BME280;8865;47.636;7.692;2023-05-09T02:52:59;98534.09;;;14.08;100.00
9474;BME280;8865;47.636;7.692;2023-05-09T02:55:25;98527.97;;;14.08;100.00
9474;BME280;8865;47.636;7.692;2023-05-09T02:57:51;98525.31;;;13.90;100.00
9474;BME280;8865;47.636;7.692;2023-05-09T03:00:17;98523.06;;;13.95;100.00
9474;BME280;8865;47.636;7.692;2023-05-09T03:02:44;98520.50;;;14.03;100.00
9474;BME280;8865;47.636;7.692;2023-05-09T03:05:10;98521.88;;;14.07;100.00
9474;BME280;8865;47.636;7.692;2023-05-09T03:07:36;98526.56;;;14.14;100.00
9474;BME280;8865;47.636;7.692;2023-05-09T03:10:03;98533.03;;;14.19;100.00
9474;BME280;8865;47.636;7.692;2023-05-09T03:12:29;98519.88;;;14.19;100.00
9474;BME280;8865;47.636;7.692;2023-05-09T03:14:55;98513.59;;;14.20;100.00
9474;BME280;8865;47.636;7.692;2023-05-09T03:17:21;98517.59;;;14.24;100.00
9474;BME280;8865;47.636;7.692;2023-05-09T03:19:47;98525.22;;;14.27;100.00
9474;BME280;8865;47.636;7.692;2023-05-09T03:22:14;98518.97;;;14.28;100.00
9474;BME280;8865;47.636;7.692;2023-05-09T03:24:40;98519.66;;;14.31;100.00
9474;BME280;8865;47.636;7.692;2023-05-09T03:27:06;98518.53;;;14.33;100.00
9474;BME280;8865;47.636;7.692;2023-05-09T03:29:32;98518.81;;;14.30;100.00
9474;BME280;8865;47.636;7.692;2023-05-09T03:31:58;98521.16;;;14.33;100.00
9474;BME280;8865;47.636;7.692;2023-05-09T03:34:24;98536.28;;;14.31;100.00
9474;BME280;8865;47.636;7.692;2023-05-09T03:36:50;98520.16;;;14.34;100.00
9474;BME280;8865;47.636;7.692;2023-05-09T03:39:16;98521.97;;;14.34;100.00
9474;BME280;8865;47.636;7.692;2023-05-09T03:41:42;98519.19;;;14.35;100.00
9474;BME280;8865;47.636;7.692;2023-05-09T03:44:08;98519.03;;;14.37;100.00
9474;BME280;8865;47.636;7.692;2023-05-09T03:46:34;98520.00;;;14.36;100.00
9474;BME280;8865;47.636;7.692;2023-05-09T03:49:00;98519.19;;;14.35;100.00
9474;BME280;8865;47.636;7.692;2023-05-09T03:51:26;98512.97;;;14.36;100.00
9474;BME280;8865;47.636;7.692;2023-05-09T03:53:52;98518.75;;;14.40;100.00
9474;BME280;8865;47.636;7.692;2023-05-09T03:56:18;98518.75;;;14.40;100.00
9474;BME280;8865;47.636;7.692;2023-05-09T03:58:44;98518.59;;;14.41;100.00
9474;BME280;8865;47.636;7.692;2023-05-09T04:01:11;98525.91;;;14.47;100.00
9474;BME280;8865;47.636;7.692;2023-05-09T04:03:37;98520.78;;;14.46;100.00
9474;BME280;8865;47.636;7.692;2023-05-09T04:06:04;98511.19;;;14.45;100.00
9474;BME280;8865;47.636;7.692;2023-05-09T04:08:31;98514.53;;;14.47;100.00
9474;BME280;8865;47.636;7.692;2023-05-09T04:10:57;98510.09;;;14.47;100.00
9474;BME280;8865;47.636;7.692;2023-05-09T04:13:23;98503.00;;;14.48;100.00
9474;BME280;8865;47.636;7.692;2023-05-09T04:15:49;98497.50;;;14.41;100.00
9474;BME280;8865;47.636;7.692;2023-05-09T04:18:15;98504.06;;;14.37;100.00
9474;BME280;8865;47.636;7.692;2023-05-09T04:20:41;98495.31;;;14.37;100.00
9474;BME280;8865;47.636;7.692;2023-05-09T04:23:07;98496.69;;;14.41;100.00
9474;BME280;8865;47.636;7.692;2023-05-09T04:25:33;98499.53;;;14.47;100.00
9474;BME280;8865;47.636;7.692;2023-05-09T04:28:00;98492.84;;;14.53;100.00
9474;BME280;8865;47.636;7.692;2023-05-09T04:30:26;98505.56;;;14.58;100.00
9474;BME280;8865;47.636;7.692;2023-05-09T04:32:52;98500.53;;;14.64;100.00
9474;BME280;8865;47.636;7.692;2023-05-09T04:35:20;98498.25;;;14.70;100.00
9474;BME280;8865;47.636;7.692;2023-05-09T04:37:47;98498.13;;;14.71;100.00
9474;BME280;8865;47.636;7.692;2023-05-09T04:40:13;98496.31;;;14.72;100.00
9474;BME280;8865;47.636;7.692;2023-05-09T04:42:39;98488.25;;;14.73;100.00
9474;BME280;8865;47.636;7.692;2023-05-09T04:45:06;98482.69;;;14.76;100.00
9474;BME280;8865;47.636;7.692;2023-05-09T04:47:32;98483.19;;;14.80;100.00
9474;BME280;8865;47.636;7.692;2023-05-09T04:49:58;98488.31;;;14.81;100.00
9474;BME280;8865;47.636;7.692;2023-05-09T04:52:24;98496.22;;;14.81;100.00
9474;BME280;8865;47.636;7.692;2023-05-09T04:54:50;98501.28;;;14.75;100.00
9474;BME280;8865;47.636;7.692;2023-05-09T04:57:16;98501.66;;;14.80;100.00
9474;BME280;8865;47.636;7.692;2023-05-09T04:59:42;98496.91;;;14.84;100.00
9474;BME280;8865;47.636;7.692;2023-05-09T05:02:08;98490.78;;;14.83;100.00
9474;BME280;8865;47.636;7.692;2023-05-09T05:04:34;98493.97;;;14.87;100.00
9474;BME280;8865;47.636;7.692;2023-05-09T05:07:00;98491.19;;;14.88;100.00
9474;BME280;8865;47.636;7.692;2023-05-09T05:09:27;98491.03;;;14.90;100.00
9474;BME280;8865;47.636;7.692;2023-05-09T05:11:52;98487.25;;;14.92;100.00
9474;BME280;8865;47.636;7.692;2023-05-09T05:14:18;98492.50;;;14.92;100.00
9474;BME280;8865;47.636;7.692;2023-05-09T05:16:44;98496.50;;;14.96;100.00
9474;BME280;8865;47.636;7.692;2023-05-09T05:19:10;98491.06;;;14.98;100.00
9474;BME280;8865;47.636;7.692;2023-05-09T05:21:36;98480.69;;;14.96;100.00
9474;BME280;8865;47.636;7.692;2023-05-09T05:24:02;98480.63;;;14.88;100.00
9474;BME280;8865;47.636;7.692;2023-05-09T05:26:28;98479.72;;;14.97;100.00
9474;BME280;8865;47.636;7.692;2023-05-09T05:28:54;98476.59;;;15.02;100.00
9474;BME280;8865;47.636;7.692;2023-05-09T05:31:22;98477.88;;;14.98;100.00
9474;BME280;8865;47.636;7.692;2023-05-09T05:33:48;98478.09;;;15.05;100.00
9474;BME280;8865;47.636;7.692;2023-05-09T05:36:13;98469.03;;;15.07;100.00
9474;BME280;8865;47.636;7.692;2023-05-09T05:38:39;98469.97;;;14.98;100.00
9474;BME280;8865;47.636;7.692;2023-05-09T05:41:05;98472.66;;;15.06;100.00
9474;BME280;8865;47.636;7.692;2023-05-09T05:43:35;98463.81;;;15.15;100.00
9474;BME280;8865;47.636;7.692;2023-05-09T05:46:01;98460.19;;;15.16;100.00
9474;BME280;8865;47.636;7.692;2023-05-09T05:48:27;98460.16;;;15.08;100.00
9474;BME280;8865;47.636;7.692;2023-05-09T05:50:53;98456.50;;;15.09;100.00
9474;BME280;8865;47.636;7.692;2023-05-09T05:53:20;98451.31;;;15.17;100.00
9474;BME280;8865;47.636;7.692;2023-05-09T05:55:46;98463.91;;;15.32;100.00
9474;BME280;8865;47.636;7.692;2023-05-09T05:58:11;98458.75;;;15.22;100.00
9474;BME280;8865;47.636;7.692;2023-05-09T06:00:38;98443.53;;;15.16;100.00
9474;BME280;8865;47.636;7.692;2023-05-09T06:03:04;98439.09;;;15.16;100.00
9474;BME280;8865;47.636;7.692;2023-05-09T06:05:30;98443.59;;;15.32;100.00
9474;BME280;8865;47.636;7.692;2023-05-09T06:07:56;98437.34;;;15.33;100.00
9474;BME280;8865;47.636;7.692;2023-05-09T06:10:22;98435.34;;;15.27;100.00
9474;BME280;8865;47.636;7.692;2023-05-09T06:12:48;98434.06;;;15.40;100.00
9474;BME280;8865;47.636;7.692;2023-05-09T06:15:14;98436.25;;;15.52;100.00
9474;BME280;8865;47.636;7.692;2023-05-09T06:17:40;98428.72;;;15.58;100.00
9474;BME280;8865;47.636;7.692;2023-05-09T06:20:06;98429.75;;;15.73;100.00
9474;BME280;8865;47.636;7.692;2023-05-09T06:22:33;98426.78;;;15.76;100.00
9474;BME280;8865;47.636;7.692;2023-05-09T06:24:59;98420.72;;;15.84;100.00
9474;BME280;8865;47.636;7.692;2023-05-09T06:27:25;98404.97;;;15.66;100.00
9474;BME280;8865;47.636;7.692;2023-05-09T06:29:51;98412.41;;;15.70;100.00
9474;BME280;8865;47.636;7.692;2023-05-09T06:32:17;98397.59;;;15.78;100.00
9474;BME280;8865;47.636;7.692;2023-05-09T06:34:44;98396.97;;;16.00;100.00
9474;BME280;8865;47.636;7.692;2023-05-09T06:37:10;98401.13;;;16.19;100.00
9474;BME280;8865;47.636;7.692;2023-05-09T06:39:36;98395.34;;;16.40;100.00
9474;BME280;8865;47.636;7.692;2023-05-09T06:42:02;98386.25;;;16.27;100.00
9474;BME280;8865;47.636;7.692;2023-05-09T06:44:28;98373.22;;;16.25;100.00
9474;BME280;8865;47.636;7.692;2023-05-09T06:46:54;98373.50;;;16.55;100.00
9474;BME280;8865;47.636;7.692;2023-05-09T06:49:20;98370.47;;;16.83;100.00
9474;BME280;8865;47.636;7.692;2023-05-09T06:51:46;98366.47;;;17.03;100.00
9474;BME280;8865;47.636;7.692;2023-05-09T06:54:12;98365.09;;;17.16;100.00
9474;BME280;8865;47.636;7.692;2023-05-09T06:56:38;98368.16;;;17.36;100.00
9474;BME280;8865;47.636;7.692;2023-05-09T06:59:04;98353.03;;;17.44;100.00
9474;BME280;8865;47.636;7.692;2023-05-09T07:01:30;98360.81;;;17.46;100.00
9474;BME280;8865;47.636;7.692;2023-05-09T07:03:55;98359.31;;;17.52;100.00
9474;BME280;8865;47.636;7.692;2023-05-09T07:06:22;98355.66;;;17.53;100.00
9474;BME280;8865;47.636;7.692;2023-05-09T07:08:48;98351.59;;;17.42;100.00
9474;BME280;8865;47.636;7.692;2023-05-09T07:11:14;98343.66;;;17.42;100.00
9474;BME280;8865;47.636;7.692;2023-05-09T07:13:40;98337.66;;;17.48;100.00
9474;BME280;8865;47.636;7.692;2023-05-09T07:16:06;98330.41;;;17.65;100.00
9474;BME280;8865;47.636;7.692;2023-05-09T07:18:32;98331.88;;;17.67;100.00
9474;BME280;8865;47.636;7.692;2023-05-09T07:20:58;98334.53;;;17.67;100.00
9474;BME280;8865;47.636;7.692;2023-05-09T07:23:24;98325.94;;;17.65;100.00
9474;BME280;8865;47.636;7.692;2023-05-09T07:25:55;98323.06;;;17.75;100.00
9474;BME280;8865;47.636;7.692;2023-05-09T07:28:22;98316.34;;;17.88;100.00
9474;BME280;8865;47.636;7.692;2023-05-09T07:30:48;98309.66;;;18.00;100.00
9474;BME280;8865;47.636;7.692;2023-05-09T07:33:14;98310.75;;;18.06;100.00
9474;BME280;8865;47.636;7.692;2023-05-09T07:35:40;98305.84;;;18.17;100.00
9474;BME280;8865;47.636;7.692;2023-05-09T07:38:06;98296.19;;;18.25;100.00
9474;BME280;8865;47.636;7.692;2023-05-09T07:40:32;98301.13;;;18.28;100.00
9474;BME280;8865;47.636;7.692;2023-05-09T07:43:01;98289.31;;;18.30;100.00
9474;BME280;8865;47.636;7.692;2023-05-09T07:45:27;98278.81;;;18.52;100.00
9474;BME280;8865;47.636;7.692;2023-05-09T07:47:53;98278.28;;;18.71;100.00
9474;BME280;8865;47.636;7.692;2023-05-09T07:50:19;98270.59;;;18.91;100.00
9474;BME280;8865;47.636;7.692;2023-05-09T07:52:45;98266.75;;;19.09;100.00
9474;BME280;8865;47.636;7.692;2023-05-09T07:55:11;98258.16;;;19.28;100.00
9474;BME280;8865;47.636;7.692;2023-05-09T07:57:37;98252.22;;;19.48;100.00
9474;BME280;8865;47.636;7.692;2023-05-09T08:00:06;98253.75;;;19.57;100.00
9474;BME280;8865;47.636;7.692;2023-05-09T08:02:32;98241.16;;;19.66;100.00
9474;BME280;8865;47.636;7.692;2023-05-09T08:04:59;98241.91;;;19.60;100.00
9474;BME280;8865;47.636;7.692;2023-05-09T08:07:25;98235.16;;;19.79;100.00
9474;BME280;8865;47.636;7.692;2023-05-09T08:09:51;98224.75;;;19.84;100.00
9474;BME280;8865;47.636;7.692;2023-05-09T08:12:17;98227.31;;;19.99;100.00
9474;BME280;8865;47.636;7.692;2023-05-09T08:14:43;98213.06;;;20.07;100.00
9474;BME280;8865;47.636;7.692;2023-05-09T08:17:09;98216.59;;;20.14;100.00
9474;BME280;8865;47.636;7.692;2023-05-09T08:19:35;98209.75;;;20.33;100.00
9474;BME280;8865;47.636;7.692;2023-05-09T08:22:01;98204.19;;;20.28;100.00
9474;BME280;8865;47.636;7.692;2023-05-09T08:24:27;98197.91;;;20.36;100.00
9474;BME280;8865;47.636;7.692;2023-05-09T08:26:54;98198.31;;;20.74;100.00
9474;BME280;8865;47.636;7.692;2023-05-09T08:29:20;98192.84;;;20.89;100.00
9474;BME280;8865;47.636;7.692;2023-05-09T08:31:46;98183.44;;;21.07;100.00
9474;BME280;8865;47.636;7.692;2023-05-09T08:34:12;98188.81;;;21.27;100.00
9474;BME280;8865;47.636;7.692;2023-05-09T08:36:38;98168.06;;;21.02;100.00
9474;BME280;8865;47.636;7.692;2023-05-09T08:39:05;98163.41;;;21.31;100.00
9474;BME280;8865;47.636;7.692;2023-05-09T08:41:32;98159.13;;;21.43;100.00
9474;BME280;8865;47.636;7.692;2023-05-09T08:44:00;98159.94;;;21.64;100.00
9474;BME280;8865;47.636;7.692;2023-05-09T08:46:30;98148.47;;;21.76;100.00
9474;BME280;8865;47.636;7.692;2023-05-09T08:48:59;98152.59;;;21.66;100.00
9474;BME280;8865;47.636;7.692;2023-05-09T08:51:25;98142.94;;;21.71;100.00
9474;BME280;8865;47.636;7.692;2023-05-09T08:53:52;98144.94;;;22.03;100.00
9474;BME280;8865;47.636;7.692;2023-05-09T08:56:18;98135.22;;;22.22;100.00
9474;BME280;8865;47.636;7.692;2023-05-09T08:58:46;98133.16;;;22.37;100.00
9474;BME280;8865;47.636;7.692;2023-05-09T09:01:13;98123.66;;;22.55;100.00
9474;BME280;8865;47.636;7.692;2023-05-09T09:03:39;98121.03;;;22.28;100.00
9474;BME280;8865;47.636;7.692;2023-05-09T09:06:12;98120.06;;;22.16;100.00
9474;BME280;8865;47.636;7.692;2023-05-09T09:08:39;98115.72;;;22.28;100.00
9474;BME280;8865;47.636;7.692;2023-05-09T09:11:09;98102.81;;;22.70;100.00
9474;BME280;8865;47.636;7.692;2023-05-09T09:13:36;98102.50;;;23.24;100.00
9474;BME280;8865;47.636;7.692;2023-05-09T09:16:13;98100.41;;;23.69;100.00
9474;BME280;8865;47.636;7.692;2023-05-09T09:18:43;98099.84;;;23.67;100.00
9474;BME280;8865;47.636;7.692;2023-05-09T09:21:11;98091.91;;;23.79;100.00
9474;BME280;8865;47.636;7.692;2023-05-09T09:23:38;98089.63;;;24.01;100.00
9474;BME280;8865;47.636;7.692;2023-05-09T09:26:07;98093.19;;;23.95;100.00
9474;BME280;8865;47.636;7.692;2023-05-09T09:28:34;98086.41;;;24.11;100.00
9474;BME280;8865;47.636;7.692;2023-05-09T09:31:00;98083.00;;;24.22;100.00
9474;BME280;8865;47.636;7.692;2023-05-09T09:33:28;98085.72;;;23.79;100.00
9474;BME280;8865;47.636;7.692;2023-05-09T09:35:55;98073.59;;;23.39;100.00
9474;BME280;8865;47.636;7.692;2023-05-09T09:38:23;98074.34;;;23.90;100.00
9474;BME280;8865;47.636;7.692;2023-05-09T09:40:53;98072.22;;;24.29;100.00
9474;BME280;8865;47.636;7.692;2023-05-09T09:43:30;98067.94;;;24.40;100.00
9474;BME280;8865;47.636;7.692;2023-05-09T09:46:01;98066.19;;;24.94;100.00
9474;BME280;8865;47.636;7.692;2023-05-09T09:48:31;98067.78;;;24.84;90.55
9474;BME280;8865;47.636;7.692;2023-05-09T09:51:07;98058.88;;;25.13;80.44
9474;BME280;8865;47.636;7.692;2023-05-09T09:53:41;98057.88;;;24.54;89.12
9474;BME280;8865;47.636;7.692;2023-05-09T09:56:09;98056.34;;;25.30;94.86
9474;BME280;8865;47.636;7.692;2023-05-09T09:58:35;98043.69;;;25.90;94.29
9474;BME280;8865;47.636;7.692;2023-05-09T10:01:12;98043.78;;;26.19;80.69
9474;BME280;8865;47.636;7.692;2023-05-09T10:03:45;98038.28;;;25.49;75.44
9474;BME280;8865;47.636;7.692;2023-05-09T10:06:15;98036.41;;;25.50;79.03
9474;BME280;8865;47.636;7.692;2023-05-09T10:08:43;98029.31;;;25.96;69.44
9474;BME280;8865;47.636;7.692;2023-05-09T10:11:11;98021.97;;;26.32;72.06
9474;BME280;8865;47.636;7.692;2023-05-09T10:13:38;98016.81;;;26.71;75.51
9474;BME280;8865;47.636;7.692;2023-05-09T10:16:04;98004.03;;;27.13;73.32
9474;BME280;8865;47.636;7.692;2023-05-09T10:18:31;98003.94;;;27.64;63.41
9474;BME280;8865;47.636;7.692;2023-05-09T10:20:58;98008.59;;;28.12;67.59
9474;BME280;8865;47.636;7.692;2023-05-09T10:23:29;97995.44;;;27.72;57.99
9474;BME280;8865;47.636;7.692;2023-05-09T10:26:22;97991.31;;;27.25;61.03
9474;BME280;8865;47.636;7.692;2023-05-09T10:28:54;97983.63;;;27.34;61.07
9474;BME280;8865;47.636;7.692;2023-05-09T10:31:26;97981.41;;;27.70;58.43
9474;BME280;8865;47.636;7.692;2023-05-09T10:33:53;97966.88;;;27.93;60.23
9474;BME280;8865;47.636;7.692;2023-05-09T10:36:23;97976.25;;;28.40;56.11
9474;BME280;8865;47.636;7.692;2023-05-09T10:38:54;97977.63;;;28.64;54.57
9474;BME280;8865;47.636;7.692;2023-05-09T10:41:21;97963.47;;;28.52;52.22
9474;BME280;8865;47.636;7.692;2023-05-09T10:43:47;97959.44;;;28.87;52.68
9474;BME280;8865;47.636;7.692;2023-05-09T10:46:13;97953.69;;;29.16;53.24
9474;BME280;8865;47.636;7.692;2023-05-09T10:48:41;97948.19;;;29.38;54.45
9474;BME280;8865;47.636;7.692;2023-05-09T10:51:08;97940.75;;;29.66;54.30
9474;BME280;8865;47.636;7.692;2023-05-09T10:53:43;97935.44;;;29.81;49.73
9474;BME280;8865;47.636;7.692;2023-05-09T10:56:24;97934.38;;;29.98;53.34
9474;BME280;8865;47.636;7.692;2023-05-09T10:58:51;97935.53;;;29.49;49.11
9474;BME280;8865;47.636;7.692;2023-05-09T11:01:28;97921.13;;;29.23;53.71
9474;BME280;8865;47.636;7.692;2023-05-09T11:03:57;97923.66;;;28.97;55.27
9474;BME280;8865;47.636;7.692;2023-05-09T11:06:49;97914.19;;;28.89;55.26
9474;BME280;8865;47.636;7.692;2023-05-09T11:14:37;97897.34;;;28.07;57.79
9474;BME280;8865;47.636;7.692;2023-05-09T11:17:05;97897.91;;;27.87;59.91
9474;BME280;8865;47.636;7.692;2023-05-09T11:19:57;97889.06;;;27.64;57.44
9474;BME280;8865;47.636;7.692;2023-05-09T11:24:52;97887.50;;;27.68;61.26
9474;BME280;8865;47.636;7.692;2023-05-09T11:27:25;97888.34;;;27.96;60.83
9474;BME280;8865;47.636;7.692;2023-05-09T11:29:52;97879.94;;;27.92;58.28
9474;BME280;8865;47.636;7.692;2023-05-09T11:32:20;97867.09;;;28.27;55.52
9474;BME280;8865;47.636;7.692;2023-05-09T11:34:46;97862.38;;;28.82;59.23
9474;BME280;8865;47.636;7.692;2023-05-09T11:37:15;97851.06;;;29.38;51.21
9474;BME280;8865;47.636;7.692;2023-05-09T11:39:59;97847.44;;;29.90;52.11
9474;BME280;8865;47.636;7.692;2023-05-09T11:42:28;97844.75;;;30.37;49.98
9474;BME280;8865;47.636;7.692;2023-05-09T11:44:56;97838.78;;;30.60;51.34
9474;BME280;8865;47.636;7.692;2023-05-09T11:47:22;97833.66;;;30.69;49.42
9474;BME280;8865;47.636;7.692;2023-05-09T11:49:49;97825.91;;;31.17;47.17
9474;BME280;8865;47.636;7.692;2023-05-09T11:52:17;97830.56;;;31.12;42.60
9474;BME280;8865;47.636;7.692;2023-05-09T11:54:43;97824.66;;;31.00;45.69
9474;BME280;8865;47.636;7.692;2023-05-09T11:57:09;97819.66;;;31.27;41.98
9474;BME280;8865;47.636;7.692;2023-05-09T11:59:37;97815.47;;;31.56;40.79
9474;BME280;8865;47.636;7.692;2023-05-09T12:02:04;97813.28;;;30.92;41.92
9474;BME280;8865;47.636;7.692;2023-05-09T12:04:31;97803.91;;;31.40;44.17
9474;BME280;8865;47.636;7.692;2023-05-09T12:07:01;97799.78;;;30.92;38.55
9474;BME280;8865;47.636;7.692;2023-05-09T12:09:34;97794.97;;;31.39;41.03
9474;BME280;8865;47.636;7.692;2023-05-09T12:12:10;97800.91;;;31.86;43.13
9474;BME280;8865;47.636;7.692;2023-05-09T12:14:36;97793.66;;;32.16;41.65
9474;BME280;8865;47.636;7.692;2023-05-09T12:17:05;97788.53;;;32.14;42.79
9474;BME280;8865;47.636;7.692;2023-05-09T12:19:31;97792.75;;;31.57;41.11
9474;BME280;8865;47.636;7.692;2023-05-09T12:21:59;97788.00;;;31.28;42.29
9474;BME280;8865;47.636;7.692;2023-05-09T12:24:27;97782.72;;;31.07;43.47
9474;BME280;8865;47.636;7.692;2023-05-09T12:26:55;97779.50;;;30.90;46.03
9474;BME280;8865;47.636;7.692;2023-05-09T12:29:22;97775.81;;;30.55;43.39
9474;BME280;8865;47.636;7.692;2023-05-09T12:31:49;97774.53;;;30.06;44.08
9474;BME280;8865;47.636;7.692;2023-05-09T12:34:15;97770.91;;;29.33;44.50
9474;BME280;8865;47.636;7.692;2023-05-09T12:36:45;97772.16;;;29.05;48.22
9474;BME280;8865;47.636;7.692;2023-05-09T12:39:19;97767.44;;;28.64;49.22
9474;BME280;8865;47.636;7.692;2023-05-09T12:41:48;97758.50;;;28.21;49.62
9474;BME280;8865;47.636;7.692;2023-05-09T12:44:24;97760.94;;;27.90;50.21
9474;BME280;8865;47.636;7.692;2023-05-09T12:47:01;97752.53;;;27.49;52.20
9474;BME280;8865;47.636;7.692;2023-05-09T12:49:28;97758.06;;;26.93;52.68
9474;BME280;8865;47.636;7.692;2023-05-09T12:51:59;97749.38;;;26.86;54.42
9474;BME280;8865;47.636;7.692;2023-05-09T12:54:28;97741.63;;;26.67;62.79
9474;BME280;8865;47.636;7.692;2023-05-09T12:56:56;97755.06;;;26.28;57.45
9474;BME280;8865;47.636;7.692;2023-05-09T12:59:25;97746.59;;;26.19;63.51
9474;BME280;8865;47.636;7.692;2023-05-09T13:01:56;97737.28;;;26.05;63.66
9474;BME280;8865;47.636;7.692;2023-05-09T13:04:24;97742.41;;;26.07;67.84
9474;BME280;8865;47.636;7.692;2023-05-09T13:06:52;97737.06;;;25.95;70.23
9474;BME280;8865;47.636;7.692;2023-05-09T13:09:26;97725.38;;;25.84;74.43
9474;BME280;8865;47.636;7.692;2023-05-09T13:11:52;97727.00;;;25.68;68.62
9474;BME280;8865;47.636;7.692;2023-05-09T13:14:20;97723.91;;;25.59;79.01
9474;BME280;8865;47.636;7.692;2023-05-09T13:16:47;97726.88;;;25.46;75.08
9474;BME280;8865;47.636;7.692;2023-05-09T13:19:13;97727.28;;;25.38;78.63
9474;BME280;8865;47.636;7.692;2023-05-09T13:21:39;97718.47;;;25.25;77.14
9474;BME280;8865;47.636;7.692;2023-05-09T13:24:05;97716.41;;;25.16;85.03
9474;BME280;8865;47.636;7.692;2023-05-09T13:26:32;97711.19;;;25.09;82.24
9474;BME280;8865;47.636;7.692;2023-05-09T13:28:58;97708.50;;;24.80;81.41
9474;BME280;8865;47.636;7.692;2023-05-09T13:31:24;97703.88;;;24.52;72.80
9474;BME280;8865;47.636;7.692;2023-05-09T13:33:50;97704.13;;;24.50;74.25
9474;BME280;8865;47.636;7.692;2023-05-09T13:36:16;97708.31;;;24.46;88.83
9474;BME280;8865;47.636;7.692;2023-05-09T13:38:43;97695.75;;;24.47;84.17